TimeCST,TemperatureF,Dew PointF,Humidity,Sea Level PressureIn,VisibilityMPH,Wind Direction,Wind SpeedMPH,Gust SpeedMPH,PrecipitationIn,Events,Conditions,WindDirDegrees,DateUTC
12:46 AM,37.4,37.4,100,29.59,1.8,NW,11.5,-,N/A,,Overcast,310,2013-01-29 06:46:00
12:54 AM,37.9,36.0,93,29.61,2.0,NW,12.7,-,N/A,,Overcast,310,2013-01-29 06:54:00
1:28 AM,37.4,35.6,93,29.61,4.0,NW,18.4,25.3,N/A,,Overcast,310,2013-01-29 07:28:00
1:50 AM,35.6,33.8,93,29.62,5.0,NW,19.6,-,N/A,,Overcast,310,2013-01-29 07:50:00
1:54 AM,36.0,34.0,93,29.63,6.0,NW,18.4,-,N/A,,Overcast,320,2013-01-29 07:54:00
2:30 AM,35.6,33.8,93,29.63,6.0,NNW,11.5,-,N/A,,Overcast,330,2013-01-29 08:30:00
2:38 AM,35.6,32.0,87,29.62,6.0,NNW,12.7,-,N/A,,Overcast,340,2013-01-29 08:38:00
2:54 AM,34.0,32.0,92,29.65,5.0,NW,6.9,-,N/A,,Mostly Cloudy,310,2013-01-29 08:54:00
3:51 AM,33.8,30.2,87,29.61,4.0,NW,16.1,-,N/A,,Overcast,310,2013-01-29 09:51:00
3:54 AM,34.0,30.9,89,29.62,4.0,NW,15.0,-,N/A,,Overcast,320,2013-01-29 09:54:00
4:20 AM,33.8,30.2,87,29.62,3.0,NW,13.8,-,N/A,,Overcast,310,2013-01-29 10:20:00
4:34 AM,33.8,30.2,87,29.63,2.5,NNW,8.1,-,N/A,,Overcast,340,2013-01-29 10:34:00
5:09 AM,33.8,30.2,87,29.64,3.0,NW,12.7,-,N/A,,Overcast,310,2013-01-29 11:09:00
5:36 AM,33.8,30.2,87,29.65,2.5,NW,8.1,-,N/A,,Overcast,320,2013-01-29 11:36:00
5:54 AM,34.0,30.9,89,29.66,3.0,NW,10.4,-,N/A,,Overcast,320,2013-01-29 11:54:00
6:54 AM,34.0,30.9,89,29.68,3.0,NW,11.5,-,N/A,,Overcast,320,2013-01-29 12:54:00
7:54 AM,33.1,30.0,89,29.69,4.0,NW,10.4,-,N/A,,Overcast,310,2013-01-29 13:54:00
8:54 AM,33.1,30.0,89,29.70,4.0,NNW,11.5,-,N/A,,Overcast,340,2013-01-29 14:54:00
9:54 AM,34.0,28.9,82,29.70,5.0,North,11.5,-,N/A,,Haze,350,2013-01-29 15:54:00
10:49 AM,33.8,30.2,87,29.69,2.5,North,16.1,-,N/A,,Overcast,360,2013-01-29 16:49:00
10:54 AM,34.0,30.0,85,29.70,2.0,North,17.3,-,N/A,,Overcast,360,2013-01-29 16:54:00
11:18 AM,33.8,28.4,81,29.69,1.8,North,19.6,-,N/A,,Overcast,360,2013-01-29 17:18:00
11:28 AM,33.8,30.2,87,29.70,2.0,NNW,15.0,-,N/A,,Overcast,340,2013-01-29 17:28:00
11:40 AM,33.8,28.4,81,29.69,1.5,NNW,17.3,-,N/A,,Overcast,340,2013-01-29 17:40:00
11:54 AM,34.0,28.9,82,29.69,2.5,North,15.0,-,N/A,,Haze,350,2013-01-29 17:54:00
12:45 PM,35.6,30.2,81,29.67,3.0,North,16.1,-,N/A,,Haze,10,2013-01-29 18:45:00
12:54 PM,35.1,30.0,82,29.68,4.0,North,13.8,-,N/A,,Haze,360,2013-01-29 18:54:00
1:54 PM,35.1,30.0,82,29.65,4.0,North,18.4,-,N/A,,Haze,360,2013-01-29 19:54:00
2:28 PM,35.6,30.2,81,29.65,5.0,North,17.3,-,N/A,,Haze,360,2013-01-29 20:28:00
2:54 PM,37.0,30.9,79,29.65,7.0,North,19.6,-,N/A,,Overcast,360,2013-01-29 20:54:00
3:54 PM,37.0,30.9,79,29.66,9.0,North,17.3,-,N/A,,Overcast,350,2013-01-29 21:54:00
4:54 PM,36.0,30.9,82,29.66,10.0,North,13.8,-,N/A,,Mostly Cloudy,360,2013-01-29 22:54:00
5:30 PM,35.6,30.2,81,29.65,10.0,North,12.7,-,N/A,,Mostly Cloudy,350,2013-01-29 23:30:00
5:54 PM,35.1,30.9,85,29.68,10.0,North,11.5,-,N/A,,Scattered Clouds,350,2013-01-29 23:54:00
6:54 PM,35.1,30.0,82,29.67,7.0,North,16.1,-,N/A,,Overcast,350,2013-01-30 00:54:00
7:54 PM,35.1,28.9,78,29.69,7.0,North,15.0,-,N/A,,Overcast,350,2013-01-30 01:54:00
8:54 PM,35.1,28.0,76,29.72,7.0,North,13.8,-,N/A,,Overcast,10,2013-01-30 02:54:00
9:54 PM,34.0,28.0,79,29.68,6.0,North,20.7,-,N/A,,Haze,360,2013-01-30 03:54:00
10:54 PM,33.1,27.0,78,29.68,5.0,North,26.5,32.2,N/A,,Haze,350,2013-01-30 04:54:00
11:54 PM,30.9,26.1,82,29.70,6.0,North,29.9,36.8,N/A,,Haze,350,2013-01-30 05:54:00